createdAt,value
2024-04-08T14:03:46.190Z,37.68
2024-04-08T14:04:08.087Z,37.92
2024-04-08T14:04:30.048Z,38.03
2024-04-08T14:04:51.862Z,38.54
2024-04-08T14:05:13.649Z,38.62
2024-04-08T14:05:35.512Z,38.62
2024-04-08T14:05:57.834Z,38.97
2024-04-08T14:06:19.786Z,39.38
2024-04-08T14:06:41.719Z,39.58
2024-04-08T14:07:08.210Z,39.78
2024-04-08T14:07:30.017Z,40.02
2024-04-08T14:07:51.775Z,39.83
2024-04-08T14:08:13.519Z,40.01
2024-04-08T14:08:35.714Z,39.62
2024-04-08T14:08:57.642Z,38.49
2024-04-08T14:09:19.555Z,38.29
2024-04-08T14:09:41.376Z,39.00
2024-04-08T14:10:03.380Z,38.70
2024-04-08T14:10:25.139Z,38.52
2024-04-08T14:10:49.668Z,38.29
2024-04-08T14:11:11.513Z,38.40
2024-04-08T14:11:33.281Z,38.91
2024-04-08T14:11:55.102Z,38.49
2024-04-08T14:12:16.923Z,38.57
2024-04-08T14:12:38.726Z,38.33
2024-04-08T14:13:00.753Z,38.53
2024-04-08T14:13:22.509Z,38.52
2024-04-08T14:13:46.889Z,38.66
2024-04-08T14:14:08.708Z,38.46
2024-04-08T14:14:30.462Z,38.37
2024-04-08T14:14:52.642Z,38.37
2024-04-08T14:15:15.534Z,38.65
2024-04-08T14:15:37.595Z,38.80
2024-04-08T14:15:59.566Z,38.37
2024-04-08T14:16:25.135Z,38.49
2024-04-08T14:16:47.081Z,38.48
2024-04-08T14:17:11.717Z,38.59
2024-04-08T14:17:34.255Z,38.64
2024-04-08T14:17:56.224Z,38.12
2024-04-08T14:18:18.738Z,38.27
2024-04-08T14:18:43.323Z,38.11
2024-04-08T14:19:05.206Z,38.20
2024-04-08T14:19:27.070Z,38.15
2024-04-08T14:19:48.896Z,37.86
2024-04-08T14:20:11.076Z,38.45
2024-04-08T14:20:32.834Z,38.46
2024-04-08T14:20:57.308Z,38.55
2024-04-08T14:21:19.224Z,38.74
2024-04-08T14:21:41.043Z,38.16
2024-04-08T14:22:02.831Z,37.69
2024-04-08T14:22:24.685Z,38.13
2024-04-08T14:22:47.415Z,37.69
2024-04-08T14:23:09.360Z,37.54
2024-04-08T14:23:31.451Z,38.04
2024-04-08T14:23:53.270Z,37.58
2024-04-08T14:24:18.580Z,37.53
2024-04-08T14:24:40.441Z,37.34
2024-04-08T14:25:02.322Z,37.72
2024-04-08T14:25:24.156Z,37.54
2024-04-08T14:25:45.953Z,37.41
2024-04-08T14:26:07.723Z,37.49
2024-04-08T14:26:29.500Z,37.42
2024-04-08T14:26:51.352Z,37.81
2024-04-08T14:27:13.270Z,37.55
2024-04-08T14:27:35.067Z,37.42
2024-04-08T14:27:57.145Z,37.29
2024-04-08T14:28:21.590Z,37.32
2024-04-08T14:28:45.605Z,37.55
2024-04-08T14:29:08.536Z,37.22
2024-04-08T14:29:33.773Z,36.81
2024-04-08T14:30:00.601Z,36.36
2024-04-08T14:30:23.227Z,35.90
2024-04-08T14:30:45.214Z,35.91
2024-04-08T14:31:07.142Z,35.78
2024-04-08T14:31:31.509Z,35.64
2024-04-08T14:31:53.312Z,35.71
2024-04-08T14:32:15.103Z,35.17
2024-04-08T14:32:36.951Z,34.96
2024-04-08T14:32:59.210Z,34.82
2024-04-08T14:33:21.166Z,34.37
2024-04-08T14:33:45.787Z,34.06
2024-04-08T14:34:08.824Z,33.88
2024-04-08T14:34:30.851Z,33.27
2024-04-08T14:34:52.785Z,33.08
2024-04-08T14:35:14.774Z,32.61
2024-04-08T14:35:39.144Z,32.40
2024-04-08T14:36:01.027Z,32.32
2024-04-08T14:36:25.246Z,31.56
2024-04-08T14:36:49.221Z,31.24
2024-04-08T14:37:11.015Z,31.12
2024-04-08T14:37:50.810Z,30.91
2024-04-08T14:38:38.775Z,30.89
2024-04-08T14:39:21.780Z,30.94
2024-04-08T14:39:40.865Z,30.63
2024-04-08T14:40:03.510Z,30.27
2024-04-08T14:40:25.802Z,30.04
2024-04-08T14:40:47.620Z,30.28
2024-04-08T14:41:09.702Z,29.80
2024-04-08T14:41:31.567Z,29.82
2024-04-08T14:41:55.937Z,29.26
2024-04-08T14:42:17.799Z,29.68
2024-04-08T14:42:39.590Z,29.06
2024-04-08T14:43:02.926Z,28.75
2024-04-08T14:43:30.285Z,28.44
2024-04-08T14:44:04.112Z,28.17
2024-04-08T14:44:40.494Z,27.76
2024-04-08T14:45:07.850Z,27.16
2024-04-08T14:45:32.482Z,27.32
2024-04-08T14:45:55.246Z,27.70
2024-04-08T14:46:17.269Z,27.68
2024-04-08T14:46:39.205Z,27.32
2024-04-08T14:47:01.330Z,27.09
2024-04-08T14:47:23.239Z,26.65
2024-04-08T14:47:45.066Z,26.54
2024-04-08T14:48:08.214Z,26.94
2024-04-08T14:48:32.699Z,26.85
2024-04-08T14:48:57.590Z,27.17
2024-04-08T14:49:19.480Z,27.07
2024-04-08T14:49:42.910Z,26.71
2024-04-08T14:50:05.442Z,26.47
2024-04-08T14:50:27.599Z,26.71
2024-04-08T14:50:49.387Z,26.52
2024-04-08T14:51:11.453Z,26.33
2024-04-08T14:51:39.044Z,26.35
2024-04-08T14:52:10.314Z,26.44
2024-04-08T14:52:39.856Z,27.18
2024-04-08T14:53:03.647Z,27.19
2024-04-08T14:53:26.132Z,26.93
2024-04-08T14:53:48.176Z,26.43
2024-04-08T14:54:10.667Z,26.28
2024-04-08T14:54:32.780Z,26.09
2024-04-08T14:54:54.983Z,25.83
2024-04-08T14:55:19.672Z,25.10
2024-04-08T14:55:44.973Z,25.36
2024-04-08T14:56:07.734Z,25.12
2024-04-08T14:56:29.812Z,25.18
2024-04-08T14:56:51.845Z,25.11
2024-04-08T14:57:14.183Z,25.04
2024-04-08T14:57:36.150Z,25.57
2024-04-08T14:57:58.016Z,25.82
2024-04-08T14:58:19.773Z,25.78
2024-04-08T14:58:45.641Z,25.60
2024-04-08T14:59:08.440Z,25.33
2024-04-08T14:59:30.250Z,25.10
2024-04-08T14:59:54.856Z,24.81
2024-04-08T15:00:17.015Z,24.80
2024-04-08T15:00:39.014Z,24.97
2024-04-08T15:01:00.908Z,25.12
2024-04-08T15:01:23.573Z,24.82
2024-04-08T15:01:45.403Z,24.34
2024-04-08T15:02:07.363Z,24.33
2024-04-08T15:02:29.295Z,24.58
2024-04-08T15:02:51.296Z,24.53
2024-04-08T15:03:13.442Z,24.52
2024-04-08T15:03:35.371Z,24.14
2024-04-08T15:04:02.654Z,24.33
2024-04-08T15:04:24.589Z,24.37
2024-04-08T15:04:47.239Z,24.39
2024-04-08T15:05:11.655Z,24.67
2024-04-08T15:05:33.618Z,24.71
2024-04-08T15:05:55.548Z,24.89
2024-04-08T15:06:17.413Z,25.27
2024-04-08T15:06:39.183Z,25.27
2024-04-08T15:07:00.923Z,24.90
2024-04-08T15:07:28.470Z,24.34
2024-04-08T15:07:50.838Z,23.93
2024-04-08T15:08:13.889Z,24.05
2024-04-08T15:08:37.163Z,23.27
2024-04-08T15:08:58.963Z,23.74
2024-04-08T15:09:21.086Z,23.44
2024-04-08T15:09:42.965Z,23.92
2024-04-08T15:10:05.410Z,23.55
2024-04-08T15:10:27.263Z,23.41
2024-04-08T15:10:58.395Z,23.82
2024-04-08T15:11:25.716Z,23.67
2024-04-08T15:11:47.937Z,23.91
2024-04-08T15:12:09.999Z,23.64
2024-04-08T15:12:32.088Z,23.95
2024-04-08T15:12:55.668Z,23.75
2024-04-08T15:13:17.461Z,24.01
2024-04-08T15:13:39.207Z,23.93
2024-04-08T15:14:01.010Z,24.17
2024-04-08T15:14:22.794Z,24.28
2024-04-08T15:14:45.133Z,23.81
2024-04-08T15:15:07.315Z,23.46
2024-04-08T15:15:31.874Z,23.89
2024-04-08T15:15:53.704Z,23.69
2024-04-08T15:16:15.475Z,23.42
2024-04-08T15:16:37.322Z,23.43
2024-04-08T15:16:59.165Z,23.48
2024-04-08T15:17:22.977Z,23.52
2024-04-08T15:17:45.989Z,23.66
2024-04-08T15:18:08.042Z,22.66
2024-04-08T15:18:32.614Z,22.68
2024-04-08T15:18:54.611Z,22.52
2024-04-08T15:19:19.046Z,22.47
2024-04-08T15:19:41.302Z,22.51
2024-04-08T15:20:03.234Z,22.62
2024-04-08T15:20:25.199Z,22.70
2024-04-08T15:20:47.329Z,23.38
2024-04-08T15:21:09.408Z,22.65
2024-04-08T15:21:33.897Z,22.67
2024-04-08T15:21:55.795Z,23.01
2024-04-08T15:22:17.624Z,23.10
2024-04-08T15:22:39.417Z,23.37
2024-04-08T15:23:01.158Z,23.31
2024-04-08T15:23:23.515Z,23.40
2024-04-08T15:23:45.302Z,23.92
2024-04-08T15:24:10.021Z,23.89
2024-04-08T15:24:31.947Z,23.98
2024-04-08T15:24:53.796Z,24.54
2024-04-08T15:25:18.727Z,24.35
2024-04-08T15:25:40.976Z,24.16
2024-04-08T15:26:03.527Z,23.17
2024-04-08T15:26:25.538Z,23.20
2024-04-08T15:26:47.663Z,23.44
2024-04-08T15:27:09.509Z,24.12
2024-04-08T15:27:33.069Z,23.58
2024-04-08T15:27:54.844Z,24.39
2024-04-08T15:28:16.626Z,24.19
2024-04-08T15:28:38.528Z,24.52
2024-04-08T15:29:00.274Z,24.42
2024-04-08T15:29:24.616Z,24.68
2024-04-08T15:29:51.185Z,24.99
2024-04-08T15:30:14.982Z,24.20
2024-04-08T15:30:36.879Z,25.01
2024-04-08T15:30:59.617Z,25.28
2024-04-08T15:31:21.454Z,25.12
2024-04-08T15:31:43.465Z,24.82
2024-04-08T15:32:06.067Z,24.65
2024-04-08T15:32:28.496Z,25.65
2024-04-08T15:32:53.042Z,25.13
2024-04-08T15:33:15.375Z,25.47
2024-04-08T15:33:37.853Z,25.84
2024-04-08T15:34:00.104Z,25.44
2024-04-08T15:34:24.788Z,26.66
2024-04-08T15:34:48.767Z,27.03
2024-04-08T15:35:12.685Z,27.01
2024-04-08T15:35:36.156Z,26.22
2024-04-08T15:35:58.179Z,26.45
2024-04-08T15:36:22.652Z,26.72
2024-04-08T15:36:44.523Z,26.20
2024-04-08T15:37:06.352Z,26.05
2024-04-08T15:37:28.144Z,25.64
2024-04-08T15:37:49.933Z,26.46
2024-04-08T15:38:11.714Z,25.89
2024-04-08T15:38:33.529Z,26.61
2024-04-08T15:38:55.290Z,26.51
2024-04-08T15:39:17.143Z,26.48
2024-04-08T15:39:38.984Z,26.70
2024-04-08T15:40:05.308Z,26.86
2024-04-08T15:40:27.438Z,26.71
2024-04-08T15:40:53.229Z,26.60
2024-04-08T15:41:15.003Z,26.84
2024-04-08T15:41:36.732Z,26.78
2024-04-08T15:41:58.537Z,26.18
2024-04-08T15:42:20.408Z,26.96
2024-04-08T15:42:42.192Z,26.81
2024-04-08T15:43:04.064Z,27.63
2024-04-08T15:43:26.899Z,27.46
2024-04-08T15:43:48.690Z,27.07
2024-04-08T15:44:10.422Z,27.36
2024-04-08T15:44:32.332Z,27.06
2024-04-08T15:44:57.724Z,27.75
2024-04-08T15:45:20.320Z,27.07
2024-04-08T15:45:42.167Z,27.21
2024-04-08T15:46:05.554Z,26.96
2024-04-08T15:46:31.595Z,26.79
2024-04-08T15:46:53.803Z,26.38
2024-04-08T15:47:15.844Z,26.85
2024-04-08T15:47:37.754Z,26.55
2024-04-08T15:47:59.724Z,26.19
2024-04-08T15:48:21.896Z,26.59
2024-04-08T15:48:46.467Z,26.72
2024-04-08T15:49:08.853Z,26.49
2024-04-08T15:49:33.476Z,26.41
2024-04-08T15:49:55.415Z,26.57
2024-04-08T15:50:17.355Z,26.25
2024-04-08T15:50:39.138Z,26.05
2024-04-08T15:51:03.767Z,25.88
2024-04-08T15:51:25.710Z,25.92
2024-04-08T15:51:52.028Z,26.22
2024-04-08T15:52:13.778Z,26.57
2024-04-08T15:52:35.630Z,26.63
2024-04-08T15:52:58.887Z,26.60
2024-04-08T15:53:20.943Z,26.55
2024-04-08T15:53:44.415Z,27.09
2024-04-08T15:54:08.134Z,26.80
2024-04-08T15:54:30.064Z,27.13
2024-04-08T15:54:53.530Z,27.10
2024-04-08T15:55:17.842Z,27.04
2024-04-08T15:55:40.821Z,26.91
2024-04-08T15:56:05.527Z,26.81
2024-04-08T15:56:27.429Z,26.83
2024-04-08T15:56:49.332Z,26.74
2024-04-08T15:57:11.203Z,26.75
2024-04-08T15:57:33.129Z,26.75
2024-04-08T15:57:56.763Z,26.80
2024-04-08T15:58:18.541Z,26.96
2024-04-08T15:58:42.951Z,26.88
2024-04-08T15:59:04.697Z,27.19
2024-04-08T15:59:27.020Z,27.23
2024-04-08T15:59:50.155Z,27.55
2024-04-08T16:00:13.274Z,27.57
2024-04-08T16:00:35.230Z,27.70
2024-04-08T16:00:57.442Z,27.45
2024-04-08T16:01:20.799Z,27.56
2024-04-08T16:01:42.553Z,27.62
2024-04-08T16:02:07.175Z,27.35
2024-04-08T16:02:28.998Z,27.80
2024-04-08T16:02:51.104Z,27.61
2024-04-08T16:03:14.213Z,27.58
2024-04-08T16:03:36.265Z,27.59
2024-04-08T16:03:58.456Z,27.95
2024-04-08T16:04:20.759Z,28.09
2024-04-08T16:04:48.999Z,28.15
2024-04-08T16:05:11.168Z,28.42
2024-04-08T16:05:33.231Z,28.01
2024-04-08T16:06:11.257Z,28.09
2024-04-08T16:06:37.180Z,27.80
2024-04-08T16:06:59.043Z,27.98
2024-04-08T16:07:20.822Z,27.80
2024-04-08T16:07:42.831Z,28.21
2024-04-08T16:08:05.130Z,27.77
2024-04-08T16:08:26.950Z,28.25
2024-04-08T16:08:48.853Z,27.96
2024-04-08T16:09:10.693Z,28.08
2024-04-08T16:09:33.060Z,28.02
2024-04-08T16:09:57.497Z,28.40
2024-04-08T16:10:19.897Z,28.62
2024-04-08T16:10:43.242Z,28.56
2024-04-08T16:11:06.152Z,28.64
2024-04-08T16:11:27.936Z,28.55
2024-04-08T16:11:49.892Z,28.96
2024-04-08T16:12:11.850Z,29.00
2024-04-08T16:12:37.032Z,28.83
2024-04-08T16:12:58.799Z,29.23
2024-04-08T16:13:20.636Z,28.95
2024-04-08T16:13:42.428Z,28.92
2024-04-08T16:14:04.853Z,29.20
2024-04-08T16:14:26.600Z,29.23
2024-04-08T16:14:48.421Z,29.12
2024-04-08T16:15:10.297Z,29.55
2024-04-08T16:15:33.336Z,29.63
2024-04-08T16:15:57.994Z,29.47
2024-04-08T16:16:19.911Z,28.67
2024-04-08T16:16:41.793Z,28.04
2024-04-08T16:17:04.813Z,28.16
2024-04-08T16:17:26.627Z,28.68
2024-04-08T16:17:48.531Z,28.55
2024-04-08T16:18:10.396Z,28.64
2024-04-08T16:18:32.924Z,29.22
2024-04-08T16:18:57.484Z,29.36
2024-04-08T16:19:19.445Z,29.17
2024-04-08T16:19:41.247Z,28.92
2024-04-08T16:20:07.193Z,28.87
2024-04-08T16:20:29.412Z,29.05
2024-04-08T16:20:57.939Z,28.45
2024-04-08T16:21:46.843Z,28.87
2024-04-08T16:22:08.598Z,28.96
2024-04-08T16:22:37.210Z,28.87
2024-04-08T16:23:21.949Z,28.65
2024-04-08T16:23:55.644Z,28.92
2024-04-08T16:24:18.578Z,28.88
2024-04-08T16:24:40.463Z,28.93
2024-04-08T16:25:02.333Z,29.76
2024-04-08T16:25:24.085Z,28.78
2024-04-08T16:25:53.342Z,28.64
2024-04-08T16:26:15.138Z,28.58
2024-04-08T16:26:39.520Z,29.12
2024-04-08T16:27:01.289Z,28.89
2024-04-08T16:27:23.139Z,28.73
2024-04-08T16:27:45.303Z,28.64
2024-04-08T16:28:07.279Z,28.25
2024-04-08T16:28:29.908Z,28.75
2024-04-08T16:28:58.203Z,28.34
2024-04-08T16:29:23.275Z,28.84
2024-04-08T16:29:46.636Z,28.75
2024-04-08T16:30:09.454Z,28.36
2024-04-08T16:30:33.983Z,28.91
2024-04-08T16:30:56.796Z,28.87
2024-04-08T16:31:18.561Z,28.98
2024-04-08T16:31:40.391Z,28.76
2024-04-08T16:32:02.142Z,29.12
2024-04-08T16:32:24.782Z,29.43
2024-04-08T16:32:46.666Z,29.50
2024-04-08T16:33:08.588Z,29.21
2024-04-08T16:33:32.185Z,29.34
2024-04-08T16:33:58.668Z,29.31
2024-04-08T16:34:20.719Z,29.27
2024-04-08T16:34:44.611Z,28.80
2024-04-08T16:35:09.085Z,29.00
2024-04-08T16:35:30.836Z,29.58
2024-04-08T16:35:52.888Z,29.31
2024-04-08T16:36:14.866Z,28.92
2024-04-08T16:36:36.857Z,28.73
2024-04-08T16:36:58.701Z,28.90
2024-04-08T16:37:20.501Z,29.73
2024-04-08T16:37:44.881Z,29.50
2024-04-08T16:38:06.612Z,30.17
2024-04-08T16:38:28.654Z,29.65
2024-04-08T16:38:50.568Z,29.37
2024-04-08T16:39:14.105Z,29.33
2024-04-08T16:39:36.196Z,29.40
2024-04-08T16:39:58.043Z,28.99
2024-04-08T16:40:19.846Z,28.98
2024-04-08T16:40:43.335Z,29.16
2024-04-08T16:41:08.209Z,28.98
2024-04-08T16:41:30.279Z,29.11
2024-04-08T16:41:52.072Z,29.03
2024-04-08T16:42:13.860Z,29.39
2024-04-08T16:42:35.663Z,29.64
2024-04-08T16:42:58.752Z,29.17
2024-04-08T16:43:21.427Z,29.53
2024-04-08T16:43:44.990Z,29.50
2024-04-08T16:44:08.136Z,29.49
2024-04-08T16:44:30.163Z,29.31
2024-04-08T16:44:54.543Z,29.56
2024-04-08T16:45:16.403Z,29.64
2024-04-08T16:45:38.338Z,29.20
2024-04-08T16:46:00.446Z,30.12
2024-04-08T16:46:25.984Z,30.83
2024-04-08T16:46:48.049Z,31.52
2024-04-08T16:47:09.899Z,30.75
2024-04-08T16:47:31.852Z,30.95
2024-04-08T16:47:53.824Z,31.06
2024-04-08T16:48:15.743Z,30.74
2024-04-08T16:48:40.519Z,30.23
2024-04-08T16:49:02.644Z,31.39
2024-04-08T16:49:25.623Z,30.94
2024-04-08T16:49:47.400Z,31.66
2024-04-08T16:50:11.801Z,31.24
2024-04-08T16:50:33.625Z,31.45
2024-04-08T16:50:57.028Z,31.00
2024-04-08T16:51:21.202Z,30.40
2024-04-08T16:51:45.581Z,30.84
2024-04-08T16:52:07.405Z,30.83
2024-04-08T16:52:29.174Z,30.65
2024-04-08T16:52:50.970Z,30.74
2024-04-08T16:53:12.719Z,30.93
2024-04-08T16:53:34.567Z,30.91
2024-04-08T16:53:56.398Z,30.33
2024-04-08T16:54:18.278Z,30.62
2024-04-08T16:54:42.360Z,30.94
2024-04-08T16:55:05.037Z,30.50
2024-04-08T16:55:26.787Z,31.07
2024-04-08T16:55:55.396Z,31.01
2024-04-08T16:56:19.814Z,30.70
2024-04-08T16:56:41.585Z,31.00
2024-04-08T16:57:03.854Z,30.48
2024-04-08T16:57:25.717Z,30.87
2024-04-08T16:57:47.476Z,30.49
2024-04-08T16:58:09.243Z,30.51
2024-04-08T16:58:31.372Z,31.17
2024-04-08T16:58:54.027Z,30.79
2024-04-08T16:59:17.347Z,30.44
2024-04-08T16:59:41.670Z,30.71
2024-04-08T17:00:04.142Z,31.13
2024-04-08T17:00:26.151Z,30.62
2024-04-08T17:00:48.067Z,30.37
2024-04-08T17:01:09.908Z,30.53
2024-04-08T17:01:31.726Z,29.70
2024-04-08T17:01:53.486Z,29.58
2024-04-08T17:02:15.294Z,29.31
2024-04-08T17:02:37.180Z,29.73
2024-04-08T17:02:59.555Z,30.29
2024-04-08T17:03:28.310Z,30.40
2024-04-08T17:03:50.398Z,30.34
2024-04-08T17:04:12.971Z,29.68
2024-04-08T17:04:36.742Z,29.34
2024-04-08T17:04:58.677Z,29.28
2024-04-08T17:05:23.131Z,29.48
2024-04-08T17:05:45.172Z,29.55
2024-04-08T17:06:09.621Z,29.49
2024-04-08T17:06:37.346Z,29.52
2024-04-08T17:07:01.827Z,29.63
2024-04-08T17:07:23.558Z,29.40
2024-04-08T17:07:46.818Z,29.72
2024-04-08T17:08:08.575Z,29.68
2024-04-08T17:08:30.518Z,30.48
2024-04-08T17:08:52.880Z,30.35
2024-04-08T17:09:14.729Z,30.30
2024-04-08T17:09:36.613Z,29.61
2024-04-08T17:10:01.993Z,29.72
2024-04-08T17:10:23.822Z,30.02
2024-04-08T17:10:45.635Z,29.57
2024-04-08T17:11:07.630Z,30.10
2024-04-08T17:11:29.522Z,30.22
2024-04-08T17:11:51.730Z,30.36
2024-04-08T17:12:13.546Z,30.06
2024-04-08T17:12:38.077Z,31.11
2024-04-08T17:12:59.923Z,31.83
2024-04-08T17:13:21.658Z,32.16
2024-04-08T17:13:45.972Z,31.67
2024-04-08T17:14:07.900Z,32.01
2024-04-08T17:14:29.646Z,32.09
2024-04-08T17:14:51.494Z,31.89
2024-04-08T17:15:13.450Z,31.44
2024-04-08T17:15:35.366Z,30.76
2024-04-08T17:15:57.228Z,31.44
2024-04-08T17:16:19.032Z,31.86
2024-04-08T17:16:40.810Z,31.55
2024-04-08T17:17:02.708Z,32.04
2024-04-08T17:17:27.160Z,32.35
2024-04-08T17:17:49.126Z,32.17
2024-04-08T17:18:12.206Z,32.13
2024-04-08T17:18:34.175Z,32.35
2024-04-08T17:18:56.111Z,32.81
2024-04-08T17:19:17.894Z,32.73
2024-04-08T17:19:39.654Z,32.62
2024-04-08T17:20:01.415Z,31.29
2024-04-08T17:20:25.789Z,31.33
2024-04-08T17:20:50.108Z,30.75
2024-04-08T17:21:12.019Z,30.76
2024-04-08T17:21:36.718Z,30.60
2024-04-08T17:21:59.931Z,31.07
2024-04-08T17:22:21.794Z,31.74
2024-04-08T17:22:44.117Z,31.60
2024-04-08T17:23:06.111Z,31.18
2024-04-08T17:23:27.864Z,32.25
2024-04-08T17:23:50.466Z,31.86
2024-04-08T17:24:12.305Z,31.91
2024-04-08T17:24:34.336Z,30.91
2024-04-08T17:24:56.203Z,30.55
2024-04-08T17:25:20.873Z,30.81
2024-04-08T17:25:42.632Z,30.85
2024-04-08T17:26:06.592Z,31.12
2024-04-08T17:26:28.366Z,31.43
2024-04-08T17:26:51.133Z,31.56
2024-04-08T17:27:13.059Z,30.83
2024-04-08T17:27:34.866Z,31.57
2024-04-08T17:27:56.748Z,31.70
2024-04-08T17:28:18.537Z,32.00
2024-04-08T17:28:42.911Z,31.39
2024-04-08T17:29:04.864Z,32.90
2024-04-08T17:29:27.016Z,33.41
2024-04-08T17:29:48.864Z,32.69
2024-04-08T17:30:12.033Z,32.33
2024-04-08T17:30:34.306Z,31.74
2024-04-08T17:30:56.739Z,31.99
2024-04-08T17:31:18.517Z,31.71
2024-04-08T17:31:40.309Z,31.75
2024-04-08T17:32:04.723Z,30.96
2024-04-08T17:32:26.737Z,31.28
2024-04-08T17:32:48.647Z,31.30
2024-04-08T17:33:10.705Z,31.25
2024-04-08T17:33:34.075Z,31.16
2024-04-08T17:33:56.213Z,32.21
2024-04-08T17:34:18.185Z,31.85
2024-04-08T17:34:40.061Z,32.22
2024-04-08T17:35:01.851Z,31.83
2024-04-08T17:35:28.826Z,31.70
2024-04-08T17:35:54.978Z,31.73
2024-04-08T17:36:16.828Z,32.37
2024-04-08T17:36:38.765Z,32.65
2024-04-08T17:37:00.637Z,32.67
2024-04-08T17:37:24.674Z,33.10
2024-04-08T17:37:47.029Z,32.80
2024-04-08T17:38:08.823Z,33.10
2024-04-08T17:38:31.589Z,33.06
2024-04-08T17:38:55.072Z,33.80
2024-04-08T17:39:19.196Z,33.53
2024-04-08T17:39:44.234Z,32.99
2024-04-08T17:40:07.385Z,33.75
2024-04-08T17:40:29.151Z,33.15
2024-04-08T17:41:01.554Z,32.49
2024-04-08T17:41:25.791Z,33.23
2024-04-08T17:41:48.541Z,34.35
2024-04-08T17:42:10.825Z,34.79
2024-04-08T17:42:39.680Z,33.88
2024-04-08T17:43:06.409Z,32.90
2024-04-08T17:43:32.466Z,33.28
2024-04-08T17:43:55.720Z,32.99
2024-04-08T17:44:20.232Z,34.57
2024-04-08T17:44:42.012Z,33.47
2024-04-08T17:45:04.423Z,33.14
2024-04-08T17:45:26.445Z,34.24
2024-04-08T17:45:48.337Z,33.03
2024-04-08T17:46:10.939Z,33.57
2024-04-08T17:46:35.223Z,33.41
2024-04-08T17:46:59.839Z,32.84
2024-04-08T17:47:21.595Z,32.50
2024-04-08T17:47:43.509Z,31.90
2024-04-08T17:48:06.296Z,32.83
2024-04-08T17:48:29.351Z,32.25
2024-04-08T17:48:51.847Z,32.52
2024-04-08T17:49:13.799Z,33.60
2024-04-08T17:49:36.423Z,34.95
2024-04-08T17:49:58.443Z,33.47
2024-04-08T17:50:20.897Z,32.41
2024-04-08T17:50:56.282Z,31.91
2024-04-08T17:51:18.207Z,32.77
2024-04-08T17:51:40.091Z,32.96
2024-04-08T17:52:02.000Z,33.19
2024-04-08T17:52:24.082Z,33.17
2024-04-08T17:52:45.903Z,33.30
2024-04-08T17:53:07.653Z,34.36
2024-04-08T17:53:30.350Z,33.70
2024-04-08T17:53:52.460Z,33.60
2024-04-08T17:54:17.781Z,32.93
2024-04-08T17:54:39.688Z,32.30
2024-04-08T17:55:01.533Z,34.00
2024-04-08T17:55:23.328Z,34.44
2024-04-08T17:55:45.078Z,34.00
2024-04-08T17:56:09.749Z,32.92
2024-04-08T17:56:33.616Z,32.55
2024-04-08T17:56:55.720Z,32.58
2024-04-08T17:57:17.507Z,31.88
2024-04-08T17:57:41.986Z,33.27
2024-04-08T17:58:04.110Z,34.13
2024-04-08T17:58:26.036Z,34.51
2024-04-08T17:58:48.509Z,33.80
2024-04-08T17:59:10.280Z,33.29
2024-04-08T17:59:32.036Z,33.91
2024-04-08T17:59:55.994Z,32.79
2024-04-08T18:00:18.217Z,33.11
2024-04-08T18:00:40.440Z,33.42
2024-04-08T18:01:04.734Z,33.76
2024-04-08T18:01:29.192Z,34.01
2024-04-08T18:01:51.125Z,33.70
2024-04-08T18:02:12.987Z,34.65
2024-04-08T18:02:34.819Z,34.83
2024-04-08T18:02:57.912Z,35.05
2024-04-08T18:03:20.052Z,34.79
2024-04-08T18:03:43.271Z,35.15
2024-04-08T18:04:06.161Z,34.76
2024-04-08T18:04:28.148Z,34.32
2024-04-08T18:04:53.499Z,35.12
2024-04-08T18:05:15.486Z,35.04
2024-04-08T18:05:37.221Z,35.69
2024-04-08T18:06:09.710Z,35.76
2024-04-08T18:06:31.648Z,36.14
2024-04-08T18:06:53.485Z,35.91
2024-04-08T18:07:15.227Z,34.33
2024-04-08T18:07:37.070Z,35.59
2024-04-08T18:07:58.917Z,34.90
2024-04-08T18:08:23.327Z,36.61
2024-04-08T18:08:46.213Z,36.77
2024-04-08T18:09:08.273Z,35.94
2024-04-08T18:09:30.666Z,36.07
2024-04-08T18:09:54.159Z,36.76
2024-04-08T18:10:16.747Z,36.44
2024-04-08T18:10:41.349Z,36.01
2024-04-08T18:11:04.256Z,35.92
2024-04-08T18:11:26.672Z,35.91
2024-04-08T18:11:56.720Z,34.67
2024-04-08T18:12:21.221Z,35.62
2024-04-08T18:12:43.042Z,35.94
2024-04-08T18:13:05.003Z,35.81
2024-04-08T18:13:26.856Z,35.97
2024-04-08T18:13:48.717Z,35.85
2024-04-08T18:14:10.668Z,36.12
2024-04-08T18:14:35.022Z,35.68
2024-04-08T18:14:56.875Z,35.98
2024-04-08T18:15:21.344Z,36.53
2024-04-08T18:15:43.135Z,36.07
2024-04-08T18:16:05.778Z,36.35
2024-04-08T18:16:32.833Z,35.85
2024-04-08T18:16:55.217Z,36.41
2024-04-08T18:17:21.683Z,36.48
2024-04-08T18:17:43.968Z,36.05
2024-04-08T18:18:06.165Z,36.07
2024-04-08T18:18:31.051Z,36.34
2024-04-08T18:18:53.537Z,36.64
2024-04-08T18:19:15.555Z,36.72
2024-04-08T18:19:38.195Z,36.59
2024-04-08T18:20:00.114Z,36.31
2024-04-08T18:20:21.949Z,36.51
2024-04-08T18:20:43.698Z,36.51
2024-04-08T18:21:11.551Z,36.34
2024-04-08T18:21:37.107Z,36.83
2024-04-08T18:21:58.996Z,36.59
2024-04-08T18:22:20.736Z,36.91
2024-04-08T18:22:42.610Z,36.53
2024-04-08T18:23:04.554Z,36.54
2024-04-08T18:23:26.332Z,36.50
2024-04-08T18:23:49.548Z,36.93
2024-04-08T18:24:11.669Z,36.60
2024-04-08T18:24:39.432Z,36.88
2024-04-08T18:25:01.742Z,36.96
2024-04-08T18:25:23.556Z,36.51
2024-04-08T18:25:54.736Z,36.55
2024-04-08T18:26:18.439Z,36.73
2024-04-08T18:26:40.285Z,36.65
2024-04-08T18:27:02.200Z,36.73
2024-04-08T18:27:24.083Z,36.78
2024-04-08T18:27:45.855Z,36.68
2024-04-08T18:28:07.574Z,36.59
2024-04-08T18:28:35.143Z,36.81
2024-04-08T18:28:57.270Z,37.13
2024-04-08T18:29:19.095Z,36.98
2024-04-08T18:29:41.201Z,37.11
2024-04-08T18:30:05.191Z,36.69
2024-04-08T18:30:29.762Z,36.91
2024-04-08T18:31:02.932Z,37.07
2024-04-08T18:31:24.817Z,37.03
2024-04-08T18:31:49.332Z,37.43
2024-04-08T18:32:11.705Z,37.31
2024-04-08T18:32:33.654Z,37.62
2024-04-08T18:32:55.599Z,37.85
2024-04-08T18:33:17.585Z,37.54
2024-04-08T18:33:41.865Z,37.86
2024-04-08T18:34:03.974Z,37.68
2024-04-08T18:34:25.849Z,37.42
2024-04-08T18:34:49.636Z,37.54
2024-04-08T18:35:11.450Z,37.45
2024-04-08T18:35:33.213Z,37.55
2024-04-08T18:35:55.182Z,37.64
2024-04-08T18:36:22.721Z,37.93
2024-04-08T18:36:45.842Z,37.69
2024-04-08T18:37:07.746Z,38.03
2024-04-08T18:37:29.588Z,37.81
2024-04-08T18:37:51.373Z,38.09
2024-04-08T18:38:13.743Z,38.14
2024-04-08T18:38:35.731Z,38.08
2024-04-08T18:38:57.518Z,38.07
2024-04-08T18:39:21.904Z,37.95
2024-04-08T18:39:44.693Z,38.22
2024-04-08T18:40:07.871Z,38.38
2024-04-08T18:40:29.644Z,38.12
2024-04-08T18:40:52.721Z,38.13
2024-04-08T18:41:15.119Z,38.60
2024-04-08T18:41:36.950Z,38.47
2024-04-08T18:41:58.719Z,38.33
2024-04-08T18:42:22.893Z,38.61
2024-04-08T18:42:44.883Z,38.35
2024-04-08T18:43:07.107Z,38.48
2024-04-08T18:43:31.485Z,38.52
2024-04-08T18:43:53.228Z,38.48
2024-04-08T18:44:15.025Z,38.62
2024-04-08T18:44:37.053Z,38.50
2024-04-08T18:44:58.774Z,38.58
2024-04-08T18:45:20.673Z,38.62
2024-04-08T18:45:42.449Z,38.92
2024-04-08T18:46:05.587Z,38.72
2024-04-08T18:46:27.362Z,38.74
2024-04-08T18:46:49.107Z,39.08
2024-04-08T18:47:13.446Z,38.77
2024-04-08T18:47:35.204Z,38.98
2024-04-08T18:47:57.219Z,38.96
2024-04-08T18:48:19.082Z,38.95
2024-04-08T18:48:41.089Z,39.11
2024-04-08T18:49:03.181Z,38.98
2024-04-08T18:49:25.400Z,39.10
2024-04-08T18:49:47.458Z,39.05
2024-04-08T18:50:09.303Z,38.86
2024-04-08T18:50:31.113Z,38.77
2024-04-08T18:50:55.523Z,39.03
2024-04-08T18:51:20.056Z,39.10
2024-04-08T18:51:42.454Z,39.20
2024-04-08T18:52:04.761Z,39.29
2024-04-08T18:52:26.720Z,38.78
2024-04-08T18:52:48.464Z,39.00
2024-04-08T18:53:10.246Z,39.23
2024-04-08T18:53:31.994Z,39.10
2024-04-08T18:53:56.499Z,39.13
2024-04-08T18:54:21.663Z,39.15
2024-04-08T18:54:44.413Z,39.00
2024-04-08T18:55:06.986Z,38.91
2024-04-08T18:55:28.742Z,38.90
2024-04-08T18:55:50.603Z,38.89
2024-04-08T18:56:12.444Z,38.95
2024-04-08T18:56:34.253Z,38.93
2024-04-08T18:56:56.112Z,39.10
2024-04-08T18:57:17.983Z,39.22
2024-04-08T18:57:39.829Z,39.36
2024-04-08T18:58:04.238Z,39.25
2024-04-08T18:58:26.123Z,39.32
2024-04-08T18:58:47.869Z,39.44
2024-04-08T18:59:09.648Z,38.99
2024-04-08T18:59:31.705Z,39.02
2024-04-08T18:59:53.527Z,39.27
2024-04-08T19:00:15.782Z,39.45